sensor_id;sensor_type;location;lat;lon;timestamp;P1;durP1;ratioP1;P2;durP2;ratioP2
30048;SDS011;16879;50.852;15.602;2022-11-21T00:00:43;106.07;;;47.92;;
30048;SDS011;16879;50.852;15.602;2022-11-21T00:03:16;87.20;;;39.78;;
30048;SDS011;16879;50.852;15.602;2022-11-21T00:05:44;109.30;;;47.45;;
30048;SDS011;16879;50.852;15.602;2022-11-21T00:08:12;82.45;;;41.13;;
30048;SDS011;16879;50.852;15.602;2022-11-21T00:10:39;78.18;;;37.05;;
30048;SDS011;16879;50.852;15.602;2022-11-21T00:13:07;127.03;;;55.35;;
30048;SDS011;16879;50.852;15.602;2022-11-21T00:15:37;133.90;;;57.30;;
30048;SDS011;16879;50.852;15.602;2022-11-21T00:18:04;104.60;;;47.28;;
30048;SDS011;16879;50.852;15.602;2022-11-21T00:20:30;105.13;;;48.10;;
30048;SDS011;16879;50.852;15.602;2022-11-21T00:22:57;107.28;;;48.90;;
30048;SDS011;16879;50.852;15.602;2022-11-21T00:25:24;116.93;;;50.28;;
30048;SDS011;16879;50.852;15.602;2022-11-21T00:27:51;97.28;;;48.97;;
30048;SDS011;16879;50.852;15.602;2022-11-21T00:30:17;77.47;;;39.25;;
30048;SDS011;16879;50.852;15.602;2022-11-21T00:32:44;83.68;;;37.83;;
30048;SDS011;16879;50.852;15.602;2022-11-21T00:35:11;103.55;;;47.30;;
30048;SDS011;16879;50.852;15.602;2022-11-21T00:37:37;91.13;;;44.95;;
30048;SDS011;16879;50.852;15.602;2022-11-21T00:40:04;91.85;;;42.28;;
30048;SDS011;16879;50.852;15.602;2022-11-21T00:42:31;102.47;;;48.45;;
30048;SDS011;16879;50.852;15.602;2022-11-21T00:44:58;107.25;;;50.17;;
30048;SDS011;16879;50.852;15.602;2022-11-21T00:47:24;102.72;;;50.00;;
30048;SDS011;16879;50.852;15.602;2022-11-21T00:49:50;101.55;;;51.60;;
30048;SDS011;16879;50.852;15.602;2022-11-21T00:52:17;115.68;;;52.90;;
30048;SDS011;16879;50.852;15.602;2022-11-21T00:54:44;111.88;;;50.80;;
30048;SDS011;16879;50.852;15.602;2022-11-21T00:57:10;96.80;;;43.67;;
30048;SDS011;16879;50.852;15.602;2022-11-21T00:59:36;97.30;;;48.88;;
30048;SDS011;16879;50.852;15.602;2022-11-21T01:02:03;114.45;;;55.38;;
30048;SDS011;16879;50.852;15.602;2022-11-21T01:04:31;108.20;;;52.70;;
30048;SDS011;16879;50.852;15.602;2022-11-21T01:06:58;91.43;;;44.50;;
30048;SDS011;16879;50.852;15.602;2022-11-21T01:09:25;90.80;;;47.55;;
30048;SDS011;16879;50.852;15.602;2022-11-21T01:11:53;87.63;;;41.90;;
30048;SDS011;16879;50.852;15.602;2022-11-21T01:14:19;81.90;;;40.00;;
30048;SDS011;16879;50.852;15.602;2022-11-21T01:16:46;98.93;;;46.78;;
30048;SDS011;16879;50.852;15.602;2022-11-21T01:19:12;90.85;;;43.53;;
30048;SDS011;16879;50.852;15.602;2022-11-21T01:21:39;93.07;;;46.40;;
30048;SDS011;16879;50.852;15.602;2022-11-21T01:24:05;103.70;;;51.97;;
30048;SDS011;16879;50.852;15.602;2022-11-21T01:26:33;97.82;;;50.85;;
30048;SDS011;16879;50.852;15.602;2022-11-21T01:29:09;80.65;;;38.00;;
30048;SDS011;16879;50.852;15.602;2022-11-21T01:31:36;77.10;;;40.22;;
30048;SDS011;16879;50.852;15.602;2022-11-21T01:34:27;70.65;;;35.05;;
30048;SDS011;16879;50.852;15.602;2022-11-21T01:36:54;94.63;;;47.47;;
30048;SDS011;16879;50.852;15.602;2022-11-21T01:39:21;86.57;;;43.25;;
30048;SDS011;16879;50.852;15.602;2022-11-21T01:41:49;80.22;;;39.63;;
30048;SDS011;16879;50.852;15.602;2022-11-21T01:44:17;76.65;;;39.88;;
30048;SDS011;16879;50.852;15.602;2022-11-21T01:46:44;82.63;;;41.45;;
30048;SDS011;16879;50.852;15.602;2022-11-21T01:49:11;75.70;;;38.03;;
30048;SDS011;16879;50.852;15.602;2022-11-21T01:59:27;89.72;;;46.47;;
30048;SDS011;16879;50.852;15.602;2022-11-21T02:01:55;92.28;;;46.50;;
30048;SDS011;16879;50.852;15.602;2022-11-21T02:04:23;86.18;;;49.17;;
30048;SDS011;16879;50.852;15.602;2022-11-21T02:06:52;80.72;;;43.78;;
30048;SDS011;16879;50.852;15.602;2022-11-21T02:09:19;92.25;;;49.33;;
30048;SDS011;16879;50.852;15.602;2022-11-21T02:12:48;86.57;;;47.75;;
30048;SDS011;16879;50.852;15.602;2022-11-21T02:14:54;87.68;;;46.33;;
30048;SDS011;16879;50.852;15.602;2022-11-21T02:17:20;77.10;;;42.75;;
30048;SDS011;16879;50.852;15.602;2022-11-21T02:19:57;78.53;;;44.28;;
30048;SDS011;16879;50.852;15.602;2022-11-21T02:25:06;92.50;;;49.95;;
30048;SDS011;16879;50.852;15.602;2022-11-21T02:27:37;131.98;;;65.63;;
30048;SDS011;16879;50.852;15.602;2022-11-21T02:30:04;119.18;;;58.20;;
30048;SDS011;16879;50.852;15.602;2022-11-21T02:32:33;123.45;;;59.47;;
30048;SDS011;16879;50.852;15.602;2022-11-21T02:35:03;133.40;;;63.78;;
30048;SDS011;16879;50.852;15.602;2022-11-21T02:37:30;106.75;;;56.00;;
30048;SDS011;16879;50.852;15.602;2022-11-21T02:40:00;103.97;;;53.53;;
30048;SDS011;16879;50.852;15.602;2022-11-21T02:42:38;97.50;;;48.72;;
30048;SDS011;16879;50.852;15.602;2022-11-21T02:45:13;85.63;;;48.13;;
30048;SDS011;16879;50.852;15.602;2022-11-21T02:47:44;93.32;;;47.45;;
30048;SDS011;16879;50.852;15.602;2022-11-21T02:50:30;82.88;;;42.08;;
30048;SDS011;16879;50.852;15.602;2022-11-21T02:52:58;80.30;;;44.45;;
30048;SDS011;16879;50.852;15.602;2022-11-21T02:55:24;84.63;;;44.13;;
30048;SDS011;16879;50.852;15.602;2022-11-21T02:57:51;71.43;;;39.10;;
30048;SDS011;16879;50.852;15.602;2022-11-21T03:00:19;90.95;;;49.08;;
30048;SDS011;16879;50.852;15.602;2022-11-21T03:02:45;83.38;;;44.92;;
30048;SDS011;16879;50.852;15.602;2022-11-21T03:05:13;80.45;;;45.92;;
30048;SDS011;16879;50.852;15.602;2022-11-21T03:07:39;80.93;;;44.30;;
30048;SDS011;16879;50.852;15.602;2022-11-21T03:10:06;89.63;;;49.13;;
30048;SDS011;16879;50.852;15.602;2022-11-21T03:12:37;83.32;;;45.83;;
30048;SDS011;16879;50.852;15.602;2022-11-21T03:15:05;74.97;;;44.28;;
30048;SDS011;16879;50.852;15.602;2022-11-21T03:17:32;76.65;;;43.65;;
30048;SDS011;16879;50.852;15.602;2022-11-21T03:19:59;66.55;;;37.78;;
30048;SDS011;16879;50.852;15.602;2022-11-21T03:22:26;59.33;;;33.30;;
30048;SDS011;16879;50.852;15.602;2022-11-21T03:24:52;52.42;;;30.17;;
30048;SDS011;16879;50.852;15.602;2022-11-21T03:27:20;68.15;;;35.75;;
30048;SDS011;16879;50.852;15.602;2022-11-21T03:33:11;70.82;;;37.92;;
30048;SDS011;16879;50.852;15.602;2022-11-21T03:35:38;58.30;;;33.38;;
30048;SDS011;16879;50.852;15.602;2022-11-21T03:41:08;79.82;;;43.65;;
30048;SDS011;16879;50.852;15.602;2022-11-21T03:43:59;83.38;;;44.53;;
30048;SDS011;16879;50.852;15.602;2022-11-21T03:46:26;77.13;;;38.83;;
30048;SDS011;16879;50.852;15.602;2022-11-21T03:48:54;75.30;;;41.03;;
30048;SDS011;16879;50.852;15.602;2022-11-21T03:51:21;74.38;;;37.95;;
30048;SDS011;16879;50.852;15.602;2022-11-21T03:53:54;67.85;;;33.88;;
30048;SDS011;16879;50.852;15.602;2022-11-21T03:56:21;72.90;;;36.42;;
30048;SDS011;16879;50.852;15.602;2022-11-21T03:58:48;66.75;;;33.17;;
30048;SDS011;16879;50.852;15.602;2022-11-21T04:01:16;65.10;;;34.25;;
30048;SDS011;16879;50.852;15.602;2022-11-21T04:03:43;59.47;;;31.17;;
30048;SDS011;16879;50.852;15.602;2022-11-21T04:06:11;70.18;;;33.00;;
30048;SDS011;16879;50.852;15.602;2022-11-21T04:08:38;79.20;;;41.28;;
30048;SDS011;16879;50.852;15.602;2022-11-21T04:11:05;66.85;;;34.22;;
30048;SDS011;16879;50.852;15.602;2022-11-21T04:13:33;66.35;;;33.05;;
30048;SDS011;16879;50.852;15.602;2022-11-21T04:16:00;72.10;;;36.15;;
30048;SDS011;16879;50.852;15.602;2022-11-21T04:18:27;73.40;;;33.97;;
30048;SDS011;16879;50.852;15.602;2022-11-21T04:20:57;56.40;;;29.05;;
30048;SDS011;16879;50.852;15.602;2022-11-21T04:23:25;50.78;;;24.80;;
30048;SDS011;16879;50.852;15.602;2022-11-21T04:25:52;57.17;;;28.92;;
30048;SDS011;16879;50.852;15.602;2022-11-21T04:28:25;51.20;;;26.38;;
30048;SDS011;16879;50.852;15.602;2022-11-21T04:31:05;53.30;;;26.67;;
30048;SDS011;16879;50.852;15.602;2022-11-21T04:33:32;58.67;;;32.55;;
30048;SDS011;16879;50.852;15.602;2022-11-21T04:35:59;54.95;;;28.75;;
30048;SDS011;16879;50.852;15.602;2022-11-21T04:38:25;48.72;;;25.88;;
30048;SDS011;16879;50.852;15.602;2022-11-21T04:40:53;40.30;;;21.60;;
30048;SDS011;16879;50.852;15.602;2022-11-21T04:43:19;33.95;;;20.58;;
30048;SDS011;16879;50.852;15.602;2022-11-21T04:45:46;26.35;;;17.67;;
30048;SDS011;16879;50.852;15.602;2022-11-21T04:48:16;19.98;;;12.45;;
30048;SDS011;16879;50.852;15.602;2022-11-21T04:50:44;16.73;;;11.02;;
30048;SDS011;16879;50.852;15.602;2022-11-21T04:53:13;12.43;;;8.27;;
30048;SDS011;16879;50.852;15.602;2022-11-21T04:55:40;10.15;;;6.93;;
30048;SDS011;16879;50.852;15.602;2022-11-21T04:58:07;7.75;;;5.72;;
30048;SDS011;16879;50.852;15.602;2022-11-21T05:00:34;9.93;;;6.45;;
30048;SDS011;16879;50.852;15.602;2022-11-21T05:03:04;7.93;;;5.15;;
30048;SDS011;16879;50.852;15.602;2022-11-21T05:05:31;9.02;;;6.32;;
30048;SDS011;16879;50.852;15.602;2022-11-21T05:08:04;7.03;;;4.47;;
30048;SDS011;16879;50.852;15.602;2022-11-21T05:13:18;6.40;;;4.93;;
30048;SDS011;16879;50.852;15.602;2022-11-21T05:15:47;3.50;;;3.05;;
30048;SDS011;16879;50.852;15.602;2022-11-21T05:18:17;3.53;;;2.08;;
30048;SDS011;16879;50.852;15.602;2022-11-21T05:20:44;1.33;;;1.20;;
30048;SDS011;16879;50.852;15.602;2022-11-21T05:23:10;2.28;;;2.08;;
30048;SDS011;16879;50.852;15.602;2022-11-21T05:25:37;2.33;;;2.00;;
30048;SDS011;16879;50.852;15.602;2022-11-21T05:28:04;2.55;;;2.08;;
30048;SDS011;16879;50.852;15.602;2022-11-21T05:30:30;4.05;;;1.80;;
30048;SDS011;16879;50.852;15.602;2022-11-21T05:32:57;5.00;;;2.10;;
30048;SDS011;16879;50.852;15.602;2022-11-21T05:35:23;3.33;;;1.63;;
30048;SDS011;16879;50.852;15.602;2022-11-21T05:37:54;6.55;;;2.58;;
30048;SDS011;16879;50.852;15.602;2022-11-21T05:41:08;6.00;;;1.95;;
30048;SDS011;16879;50.852;15.602;2022-11-21T05:43:35;10.23;;;2.65;;
30048;SDS011;16879;50.852;15.602;2022-11-21T05:46:13;15.00;;;4.90;;
30048;SDS011;16879;50.852;15.602;2022-11-21T05:48:40;9.35;;;4.00;;
30048;SDS011;16879;50.852;15.602;2022-11-21T05:51:06;5.18;;;1.98;;
30048;SDS011;16879;50.852;15.602;2022-11-21T05:53:33;2.75;;;1.55;;
30048;SDS011;16879;50.852;15.602;2022-11-21T05:56:03;2.85;;;2.10;;
30048;SDS011;16879;50.852;15.602;2022-11-21T05:58:30;2.00;;;1.50;;
30048;SDS011;16879;50.852;15.602;2022-11-21T06:00:57;1.10;;;1.00;;
30048;SDS011;16879;50.852;15.602;2022-11-21T06:03:23;1.42;;;1.33;;
30048;SDS011;16879;50.852;15.602;2022-11-21T06:08:38;2.55;;;2.20;;
30048;SDS011;16879;50.852;15.602;2022-11-21T06:11:09;4.55;;;2.85;;
30048;SDS011;16879;50.852;15.602;2022-11-21T06:13:35;1.52;;;1.25;;
30048;SDS011;16879;50.852;15.602;2022-11-21T06:16:09;0.70;;;0.70;;
30048;SDS011;16879;50.852;15.602;2022-11-21T06:21:07;1.00;;;0.90;;
30048;SDS011;16879;50.852;15.602;2022-11-21T06:23:34;13.40;;;7.78;;
30048;SDS011;16879;50.852;15.602;2022-11-21T06:26:02;3.25;;;2.03;;
30048;SDS011;16879;50.852;15.602;2022-11-21T06:28:31;1.10;;;0.90;;
30048;SDS011;16879;50.852;15.602;2022-11-21T06:31:02;2.05;;;1.27;;
30048;SDS011;16879;50.852;15.602;2022-11-21T06:33:28;1.77;;;1.10;;
30048;SDS011;16879;50.852;15.602;2022-11-21T06:35:57;0.82;;;0.70;;
30048;SDS011;16879;50.852;15.602;2022-11-21T06:38:26;1.45;;;0.90;;
30048;SDS011;16879;50.852;15.602;2022-11-21T06:40:52;2.35;;;0.90;;
30048;SDS011;16879;50.852;15.602;2022-11-21T06:43:18;0.65;;;0.65;;
30048;SDS011;16879;50.852;15.602;2022-11-21T06:45:45;2.88;;;2.55;;
30048;SDS011;16879;50.852;15.602;2022-11-21T06:48:11;4.10;;;1.75;;
30048;SDS011;16879;50.852;15.602;2022-11-21T06:50:38;1.88;;;1.20;;
30048;SDS011;16879;50.852;15.602;2022-11-21T06:53:04;1.45;;;1.27;;
30048;SDS011;16879;50.852;15.602;2022-11-21T06:55:31;5.20;;;1.50;;
30048;SDS011;16879;50.852;15.602;2022-11-21T06:57:57;2.67;;;1.30;;
30048;SDS011;16879;50.852;15.602;2022-11-21T07:00:24;1.45;;;1.35;;
30048;SDS011;16879;50.852;15.602;2022-11-21T07:02:52;3.28;;;1.40;;
30048;SDS011;16879;50.852;15.602;2022-11-21T07:05:18;2.38;;;1.30;;
30048;SDS011;16879;50.852;15.602;2022-11-21T07:07:45;2.33;;;1.70;;
30048;SDS011;16879;50.852;15.602;2022-11-21T07:10:11;3.75;;;2.13;;
30048;SDS011;16879;50.852;15.602;2022-11-21T07:12:38;2.78;;;1.13;;
30048;SDS011;16879;50.852;15.602;2022-11-21T07:15:22;0.73;;;0.73;;
30048;SDS011;16879;50.852;15.602;2022-11-21T07:17:48;2.65;;;1.90;;
30048;SDS011;16879;50.852;15.602;2022-11-21T07:20:15;2.30;;;1.35;;
30048;SDS011;16879;50.852;15.602;2022-11-21T07:22:41;1.15;;;1.05;;
30048;SDS011;16879;50.852;15.602;2022-11-21T07:25:08;2.15;;;1.10;;
30048;SDS011;16879;50.852;15.602;2022-11-21T07:27:35;2.17;;;1.35;;
30048;SDS011;16879;50.852;15.602;2022-11-21T07:30:01;2.35;;;1.38;;
30048;SDS011;16879;50.852;15.602;2022-11-21T07:32:28;1.52;;;1.42;;
30048;SDS011;16879;50.852;15.602;2022-11-21T07:34:54;1.60;;;1.50;;
30048;SDS011;16879;50.852;15.602;2022-11-21T07:37:23;2.72;;;1.52;;
30048;SDS011;16879;50.852;15.602;2022-11-21T07:39:50;2.00;;;1.85;;
30048;SDS011;16879;50.852;15.602;2022-11-21T07:42:16;1.75;;;1.30;;
30048;SDS011;16879;50.852;15.602;2022-11-21T07:44:43;1.80;;;1.65;;
30048;SDS011;16879;50.852;15.602;2022-11-21T07:47:09;3.20;;;1.50;;
30048;SDS011;16879;50.852;15.602;2022-11-21T07:49:36;2.05;;;1.52;;
30048;SDS011;16879;50.852;15.602;2022-11-21T07:52:02;2.38;;;1.30;;
30048;SDS011;16879;50.852;15.602;2022-11-21T07:54:29;2.95;;;1.50;;
30048;SDS011;16879;50.852;15.602;2022-11-21T07:56:55;2.83;;;1.70;;
30048;SDS011;16879;50.852;15.602;2022-11-21T07:59:22;2.40;;;1.95;;
30048;SDS011;16879;50.852;15.602;2022-11-21T08:01:49;1.95;;;1.60;;
30048;SDS011;16879;50.852;15.602;2022-11-21T08:04:16;2.25;;;1.45;;
30048;SDS011;16879;50.852;15.602;2022-11-21T08:06:45;3.20;;;2.38;;
30048;SDS011;16879;50.852;15.602;2022-11-21T08:09:13;5.00;;;2.97;;
30048;SDS011;16879;50.852;15.602;2022-11-21T08:11:39;3.90;;;2.30;;
30048;SDS011;16879;50.852;15.602;2022-11-21T08:14:06;2.65;;;1.83;;
30048;SDS011;16879;50.852;15.602;2022-11-21T08:16:32;2.03;;;1.80;;
30048;SDS011;16879;50.852;15.602;2022-11-21T08:19:00;2.45;;;2.25;;
30048;SDS011;16879;50.852;15.602;2022-11-21T08:21:27;6.65;;;3.65;;
30048;SDS011;16879;50.852;15.602;2022-11-21T08:23:53;3.08;;;2.20;;
30048;SDS011;16879;50.852;15.602;2022-11-21T08:26:20;5.50;;;3.85;;
30048;SDS011;16879;50.852;15.602;2022-11-21T08:28:46;5.85;;;3.17;;
30048;SDS011;16879;50.852;15.602;2022-11-21T08:31:13;3.47;;;2.25;;
30048;SDS011;16879;50.852;15.602;2022-11-21T08:33:39;6.75;;;3.65;;
30048;SDS011;16879;50.852;15.602;2022-11-21T08:36:06;4.55;;;3.15;;
30048;SDS011;16879;50.852;15.602;2022-11-21T08:38:32;3.72;;;2.45;;
30048;SDS011;16879;50.852;15.602;2022-11-21T08:40:58;3.17;;;2.38;;
30048;SDS011;16879;50.852;15.602;2022-11-21T08:43:43;12.65;;;6.45;;
30048;SDS011;16879;50.852;15.602;2022-11-21T08:46:10;19.10;;;8.32;;
30048;SDS011;16879;50.852;15.602;2022-11-21T08:48:36;24.33;;;11.43;;
30048;SDS011;16879;50.852;15.602;2022-11-21T08:51:02;26.08;;;11.25;;
30048;SDS011;16879;50.852;15.602;2022-11-21T08:53:29;30.65;;;12.13;;
30048;SDS011;16879;50.852;15.602;2022-11-21T08:55:55;20.73;;;9.35;;
30048;SDS011;16879;50.852;15.602;2022-11-21T08:58:21;11.90;;;5.85;;
30048;SDS011;16879;50.852;15.602;2022-11-21T09:00:47;7.75;;;4.65;;
30048;SDS011;16879;50.852;15.602;2022-11-21T09:03:14;10.57;;;6.05;;
30048;SDS011;16879;50.852;15.602;2022-11-21T09:05:40;14.98;;;8.45;;
30048;SDS011;16879;50.852;15.602;2022-11-21T09:08:06;13.73;;;5.80;;
30048;SDS011;16879;50.852;15.602;2022-11-21T09:10:32;16.75;;;7.22;;
30048;SDS011;16879;50.852;15.602;2022-11-21T09:12:59;7.40;;;5.10;;
30048;SDS011;16879;50.852;15.602;2022-11-21T09:15:26;12.88;;;5.85;;
30048;SDS011;16879;50.852;15.602;2022-11-21T09:18:11;6.65;;;4.57;;
30048;SDS011;16879;50.852;15.602;2022-11-21T09:20:39;4.47;;;2.83;;
30048;SDS011;16879;50.852;15.602;2022-11-21T09:23:09;3.08;;;2.30;;
30048;SDS011;16879;50.852;15.602;2022-11-21T09:25:36;3.97;;;2.20;;
30048;SDS011;16879;50.852;15.602;2022-11-21T09:28:02;3.83;;;2.75;;
30048;SDS011;16879;50.852;15.602;2022-11-21T09:30:29;6.28;;;3.53;;
30048;SDS011;16879;50.852;15.602;2022-11-21T09:32:59;6.30;;;3.33;;
30048;SDS011;16879;50.852;15.602;2022-11-21T09:35:29;9.25;;;3.83;;
30048;SDS011;16879;50.852;15.602;2022-11-21T09:37:55;9.70;;;4.07;;
30048;SDS011;16879;50.852;15.602;2022-11-21T09:40:22;13.43;;;5.97;;
30048;SDS011;16879;50.852;15.602;2022-11-21T09:42:55;19.02;;;8.20;;
30048;SDS011;16879;50.852;15.602;2022-11-21T09:45:29;6.05;;;4.05;;
30048;SDS011;16879;50.852;15.602;2022-11-21T09:48:20;8.85;;;4.72;;
30048;SDS011;16879;50.852;15.602;2022-11-21T09:50:55;6.47;;;3.90;;
30048;SDS011;16879;50.852;15.602;2022-11-21T09:53:25;5.30;;;2.40;;
30048;SDS011;16879;50.852;15.602;2022-11-21T09:55:57;4.00;;;2.22;;
30048;SDS011;16879;50.852;15.602;2022-11-21T10:01:30;2.22;;;1.17;;
30048;SDS011;16879;50.852;15.602;2022-11-21T10:03:56;3.67;;;1.70;;
30048;SDS011;16879;50.852;15.602;2022-11-21T10:06:26;8.95;;;3.75;;
30048;SDS011;16879;50.852;15.602;2022-11-21T10:12:11;7.15;;;3.40;;
30048;SDS011;16879;50.852;15.602;2022-11-21T10:25:35;2.33;;;1.55;;
30048;SDS011;16879;50.852;15.602;2022-11-21T10:28:10;3.17;;;2.30;;
30048;SDS011;16879;50.852;15.602;2022-11-21T10:30:41;8.40;;;4.10;;
30048;SDS011;16879;50.852;15.602;2022-11-21T10:33:30;8.00;;;4.00;;
30048;SDS011;16879;50.852;15.602;2022-11-21T10:35:58;10.90;;;5.88;;
30048;SDS011;16879;50.852;15.602;2022-11-21T10:38:26;10.15;;;5.38;;
30048;SDS011;16879;50.852;15.602;2022-11-21T10:41:12;14.38;;;5.97;;
30048;SDS011;16879;50.852;15.602;2022-11-21T10:44:07;4.35;;;3.45;;
30048;SDS011;16879;50.852;15.602;2022-11-21T10:47:00;9.30;;;4.18;;
30048;SDS011;16879;50.852;15.602;2022-11-21T10:49:31;4.72;;;3.30;;
30048;SDS011;16879;50.852;15.602;2022-11-21T10:52:00;4.32;;;3.85;;
30048;SDS011;16879;50.852;15.602;2022-11-21T10:54:30;7.75;;;4.72;;
30048;SDS011;16879;50.852;15.602;2022-11-21T10:57:12;6.18;;;4.43;;
30048;SDS011;16879;50.852;15.602;2022-11-21T10:59:41;8.38;;;5.03;;
30048;SDS011;16879;50.852;15.602;2022-11-21T11:02:23;3.28;;;2.88;;
30048;SDS011;16879;50.852;15.602;2022-11-21T11:07:41;2.70;;;2.50;;
30048;SDS011;16879;50.852;15.602;2022-11-21T11:10:23;2.42;;;1.88;;
30048;SDS011;16879;50.852;15.602;2022-11-21T11:12:49;3.28;;;2.42;;
30048;SDS011;16879;50.852;15.602;2022-11-21T11:15:35;2.45;;;1.75;;
30048;SDS011;16879;50.852;15.602;2022-11-21T11:18:03;2.17;;;1.90;;
30048;SDS011;16879;50.852;15.602;2022-11-21T11:22:57;3.85;;;3.25;;
30048;SDS011;16879;50.852;15.602;2022-11-21T11:25:23;1.45;;;1.35;;
30048;SDS011;16879;50.852;15.602;2022-11-21T11:27:49;3.00;;;2.20;;
30048;SDS011;16879;50.852;15.602;2022-11-21T11:30:17;2.92;;;2.22;;
30048;SDS011;16879;50.852;15.602;2022-11-21T11:32:44;5.05;;;2.10;;
30048;SDS011;16879;50.852;15.602;2022-11-21T11:37:46;3.42;;;2.28;;
30048;SDS011;16879;50.852;15.602;2022-11-21T11:40:29;2.53;;;2.05;;
30048;SDS011;16879;50.852;15.602;2022-11-21T11:43:18;2.47;;;1.95;;
30048;SDS011;16879;50.852;15.602;2022-11-21T11:49:02;2.00;;;1.80;;
30048;SDS011;16879;50.852;15.602;2022-11-21T11:56:12;1.95;;;1.60;;
30048;SDS011;16879;50.852;15.602;2022-11-21T12:01:10;4.53;;;3.83;;
30048;SDS011;16879;50.852;15.602;2022-11-21T12:03:56;5.63;;;3.97;;
30048;SDS011;16879;50.852;15.602;2022-11-21T12:11:53;7.00;;;4.90;;
30048;SDS011;16879;50.852;15.602;2022-11-21T12:14:43;5.97;;;2.92;;
30048;SDS011;16879;50.852;15.602;2022-11-21T12:17:38;2.40;;;2.20;;
30048;SDS011;16879;50.852;15.602;2022-11-21T12:20:19;4.35;;;3.35;;
30048;SDS011;16879;50.852;15.602;2022-11-21T12:22:46;5.72;;;3.47;;
30048;SDS011;16879;50.852;15.602;2022-11-21T12:25:15;5.68;;;4.60;;
30048;SDS011;16879;50.852;15.602;2022-11-21T12:27:44;4.45;;;3.97;;
30048;SDS011;16879;50.852;15.602;2022-11-21T12:38:04;7.10;;;5.68;;
30048;SDS011;16879;50.852;15.602;2022-11-21T12:40:38;6.75;;;5.05;;
30048;SDS011;16879;50.852;15.602;2022-11-21T12:43:12;7.45;;;5.32;;
30048;SDS011;16879;50.852;15.602;2022-11-21T12:48:14;8.18;;;6.82;;
30048;SDS011;16879;50.852;15.602;2022-11-21T12:53:55;11.00;;;7.38;;
30048;SDS011;16879;50.852;15.602;2022-11-21T12:57:07;10.98;;;5.82;;
30048;SDS011;16879;50.852;15.602;2022-11-21T13:02:24;7.30;;;4.82;;
30048;SDS011;16879;50.852;15.602;2022-11-21T13:04:52;10.60;;;5.25;;
30048;SDS011;16879;50.852;15.602;2022-11-21T13:07:23;4.35;;;3.92;;
30048;SDS011;16879;50.852;15.602;2022-11-21T13:09:53;6.47;;;4.28;;
30048;SDS011;16879;50.852;15.602;2022-11-21T13:17:42;10.65;;;7.25;;
30048;SDS011;16879;50.852;15.602;2022-11-21T13:22:53;5.63;;;4.85;;
30048;SDS011;16879;50.852;15.602;2022-11-21T13:30:47;8.38;;;6.88;;
30048;SDS011;16879;50.852;15.602;2022-11-21T14:03:02;8.30;;;5.00;;
30048;SDS011;16879;50.852;15.602;2022-11-21T14:05:42;7.57;;;4.88;;
30048;SDS011;16879;50.852;15.602;2022-11-21T14:08:19;8.02;;;5.30;;
30048;SDS011;16879;50.852;15.602;2022-11-21T14:10:46;6.38;;;4.70;;
30048;SDS011;16879;50.852;15.602;2022-11-21T14:13:20;6.28;;;5.38;;
30048;SDS011;16879;50.852;15.602;2022-11-21T14:16:03;7.05;;;4.55;;
30048;SDS011;16879;50.852;15.602;2022-11-21T14:18:32;20.25;;;10.13;;
30048;SDS011;16879;50.852;15.602;2022-11-21T14:21:03;18.02;;;8.63;;
30048;SDS011;16879;50.852;15.602;2022-11-21T14:23:32;10.70;;;6.28;;
30048;SDS011;16879;50.852;15.602;2022-11-21T14:26:03;23.33;;;14.50;;
30048;SDS011;16879;50.852;15.602;2022-11-21T14:28:41;29.42;;;17.52;;
30048;SDS011;16879;50.852;15.602;2022-11-21T14:31:07;39.85;;;22.48;;
30048;SDS011;16879;50.852;15.602;2022-11-21T14:33:36;34.30;;;19.33;;
30048;SDS011;16879;50.852;15.602;2022-11-21T14:39:00;41.70;;;21.05;;
30048;SDS011;16879;50.852;15.602;2022-11-21T14:41:31;38.88;;;18.92;;
30048;SDS011;16879;50.852;15.602;2022-11-21T14:51:45;43.35;;;21.98;;
30048;SDS011;16879;50.852;15.602;2022-11-21T14:54:23;48.15;;;24.95;;
30048;SDS011;16879;50.852;15.602;2022-11-21T14:56:55;36.05;;;20.50;;
30048;SDS011;16879;50.852;15.602;2022-11-21T14:59:34;42.58;;;22.33;;
30048;SDS011;16879;50.852;15.602;2022-11-21T15:02:02;51.60;;;28.27;;
30048;SDS011;16879;50.852;15.602;2022-11-21T15:04:36;62.55;;;35.20;;
30048;SDS011;16879;50.852;15.602;2022-11-21T15:07:03;48.13;;;27.83;;
30048;SDS011;16879;50.852;15.602;2022-11-21T15:09:30;77.70;;;36.75;;
30048;SDS011;16879;50.852;15.602;2022-11-21T15:12:03;86.68;;;40.38;;
30048;SDS011;16879;50.852;15.602;2022-11-21T15:14:33;93.10;;;46.33;;
30048;SDS011;16879;50.852;15.602;2022-11-21T15:17:10;92.72;;;47.95;;
30048;SDS011;16879;50.852;15.602;2022-11-21T15:19:39;98.13;;;50.17;;
30048;SDS011;16879;50.852;15.602;2022-11-21T15:22:14;115.30;;;54.33;;
30048;SDS011;16879;50.852;15.602;2022-11-21T15:25:03;130.07;;;61.85;;
30048;SDS011;16879;50.852;15.602;2022-11-21T15:27:50;200.40;;;68.88;;
30048;SDS011;16879;50.852;15.602;2022-11-21T15:30:29;135.98;;;53.03;;
30048;SDS011;16879;50.852;15.602;2022-11-21T15:33:13;107.53;;;48.03;;
30048;SDS011;16879;50.852;15.602;2022-11-21T15:35:42;214.80;;;95.35;;
30048;SDS011;16879;50.852;15.602;2022-11-21T15:38:18;200.77;;;102.95;;
30048;SDS011;16879;50.852;15.602;2022-11-21T15:46:13;138.52;;;68.47;;
30048;SDS011;16879;50.852;15.602;2022-11-21T15:48:51;107.63;;;54.90;;
30048;SDS011;16879;50.852;15.602;2022-11-21T15:51:19;106.72;;;53.03;;
30048;SDS011;16879;50.852;15.602;2022-11-21T15:53:50;75.68;;;40.85;;
30048;SDS011;16879;50.852;15.602;2022-11-21T15:56:17;74.18;;;38.83;;
30048;SDS011;16879;50.852;15.602;2022-11-21T15:58:44;75.93;;;37.05;;
30048;SDS011;16879;50.852;15.602;2022-11-21T16:01:21;72.57;;;37.70;;
30048;SDS011;16879;50.852;15.602;2022-11-21T16:03:50;84.50;;;45.75;;
30048;SDS011;16879;50.852;15.602;2022-11-21T16:06:18;80.07;;;40.72;;
30048;SDS011;16879;50.852;15.602;2022-11-21T16:08:45;71.22;;;37.67;;
30048;SDS011;16879;50.852;15.602;2022-11-21T16:13:54;74.43;;;39.08;;
30048;SDS011;16879;50.852;15.602;2022-11-21T16:16:23;86.15;;;45.95;;
30048;SDS011;16879;50.852;15.602;2022-11-21T16:18:52;91.88;;;50.25;;
30048;SDS011;16879;50.852;15.602;2022-11-21T16:21:18;100.07;;;47.42;;
30048;SDS011;16879;50.852;15.602;2022-11-21T16:23:44;98.85;;;48.17;;
30048;SDS011;16879;50.852;15.602;2022-11-21T16:26:10;101.80;;;54.92;;
30048;SDS011;16879;50.852;15.602;2022-11-21T16:28:37;117.47;;;61.35;;
30048;SDS011;16879;50.852;15.602;2022-11-21T16:31:03;98.00;;;51.72;;
30048;SDS011;16879;50.852;15.602;2022-11-21T16:33:30;90.05;;;46.10;;
30048;SDS011;16879;50.852;15.602;2022-11-21T16:35:57;89.13;;;47.17;;
30048;SDS011;16879;50.852;15.602;2022-11-21T16:38:24;88.65;;;47.63;;
30048;SDS011;16879;50.852;15.602;2022-11-21T16:40:58;87.32;;;49.58;;
30048;SDS011;16879;50.852;15.602;2022-11-21T16:43:26;89.00;;;46.83;;
30048;SDS011;16879;50.852;15.602;2022-11-21T16:45:54;80.43;;;45.30;;
30048;SDS011;16879;50.852;15.602;2022-11-21T16:48:21;88.03;;;47.75;;
30048;SDS011;16879;50.852;15.602;2022-11-21T16:50:48;116.82;;;61.00;;
30048;SDS011;16879;50.852;15.602;2022-11-21T16:53:15;110.07;;;57.22;;
30048;SDS011;16879;50.852;15.602;2022-11-21T16:55:41;107.85;;;55.40;;
30048;SDS011;16879;50.852;15.602;2022-11-21T16:58:08;101.30;;;54.58;;